sensor_id;sensor_type;location;lat;lon;timestamp;pressure;altitude;pressure_sealevel;temperature;humidity
57376;BME280;44805;45.048;5.062;2022-07-05T06:48:31;100074.91;;;21.79;61.54
57376;BME280;44805;45.048;5.062;2022-07-05T08:01:27;100113.97;;;23.57;54.18
57376;BME280;44805;45.048;5.062;2022-07-05T09:44:07;100111.66;;;26.67;41.76
57376;BME280;44805;45.048;5.062;2022-07-05T10:32:29;100106.22;;;28.60;37.77
57376;BME280;44805;45.048;5.062;2022-07-05T10:41:02;100048.84;;;28.36;36.63
57376;BME280;44805;45.048;5.062;2022-07-05T11:15:37;100091.13;;;29.07;33.84
57376;BME280;44805;45.048;5.062;2022-07-05T11:18:30;100035.69;;;28.45;34.91
57376;BME280;44805;45.048;5.062;2022-07-05T11:21:23;100091.19;;;28.79;35.05
57376;BME280;44805;45.048;5.062;2022-07-05T11:36:37;100022.75;;;29.05;33.94
57376;BME280;44805;45.048;5.062;2022-07-05T11:39:07;100057.28;;;29.19;33.23
57376;BME280;44805;45.048;5.062;2022-07-05T11:48:32;100030.75;;;29.27;34.12
57376;BME280;44805;45.048;5.062;2022-07-05T11:51:20;100031.66;;;29.00;33.87
57376;BME280;44805;45.048;5.062;2022-07-05T11:53:55;100032.34;;;29.17;33.88
57376;BME280;44805;45.048;5.062;2022-07-05T12:09:28;100028.19;;;29.05;33.68
57376;BME280;44805;45.048;5.062;2022-07-05T12:19:06;100047.19;;;29.68;32.67
57376;BME280;44805;45.048;5.062;2022-07-05T12:22:12;100001.78;;;29.48;32.78
57376;BME280;44805;45.048;5.062;2022-07-05T12:24:41;100024.81;;;29.40;33.04
57376;BME280;44805;45.048;5.062;2022-07-05T12:30:57;99995.59;;;29.62;32.32
57376;BME280;44805;45.048;5.062;2022-07-05T12:33:46;99989.59;;;29.55;32.10
57376;BME280;44805;45.048;5.062;2022-07-05T12:36:32;99999.88;;;29.48;32.45
57376;BME280;44805;45.048;5.062;2022-07-05T12:39:08;100050.19;;;29.76;32.32
57376;BME280;44805;45.048;5.062;2022-07-05T12:41:48;100042.88;;;29.72;31.86
57376;BME280;44805;45.048;5.062;2022-07-05T12:44:41;100014.63;;;29.68;31.59
57376;BME280;44805;45.048;5.062;2022-07-05T12:47:28;99983.06;;;29.41;30.82
57376;BME280;44805;45.048;5.062;2022-07-05T12:50:09;99992.88;;;29.62;31.16
57376;BME280;44805;45.048;5.062;2022-07-05T12:53:01;99989.31;;;29.47;30.84
57376;BME280;44805;45.048;5.062;2022-07-05T12:55:49;99974.38;;;29.39;30.67
57376;BME280;44805;45.048;5.062;2022-07-05T12:59:00;99982.88;;;29.78;31.41
57376;BME280;44805;45.048;5.062;2022-07-05T13:01:43;100011.38;;;29.66;30.70
57376;BME280;44805;45.048;5.062;2022-07-05T13:04:18;99956.78;;;29.57;30.88
57376;BME280;44805;45.048;5.062;2022-07-05T13:06:58;99941.31;;;29.47;30.47
57376;BME280;44805;45.048;5.062;2022-07-05T13:09:36;99972.03;;;29.78;31.24
57376;BME280;44805;45.048;5.062;2022-07-05T13:12:33;100052.66;;;29.93;30.67
57376;BME280;44805;45.048;5.062;2022-07-05T13:15:03;99975.50;;;29.63;29.99
57376;BME280;44805;45.048;5.062;2022-07-05T13:17:32;99994.50;;;29.63;30.43
57376;BME280;44805;45.048;5.062;2022-07-05T13:22:25;100023.69;;;29.26;30.54
57376;BME280;44805;45.048;5.062;2022-07-05T13:24:57;100019.38;;;29.30;30.84
57376;BME280;44805;45.048;5.062;2022-07-05T13:27:38;99990.28;;;29.10;30.36
57376;BME280;44805;45.048;5.062;2022-07-05T13:30:07;99987.97;;;29.49;30.47
57376;BME280;44805;45.048;5.062;2022-07-05T13:47:14;99982.47;;;29.24;29.83
57376;BME280;44805;45.048;5.062;2022-07-05T13:50:04;100012.72;;;29.73;30.39
57376;BME280;44805;45.048;5.062;2022-07-05T13:53:14;99979.81;;;29.39;30.21
57376;BME280;44805;45.048;5.062;2022-07-05T13:55:53;100031.97;;;29.67;30.98
57376;BME280;44805;45.048;5.062;2022-07-05T17:21:09;99933.13;;;29.32;24.95
